Blaydon-on-Tyne, United Kingdom
Current Conditions -  °F | °C
As of 8:50 PM on Tuesday 21 Oct 2014 (Local Time) from EGNT Reporting Station
Few Clouds Few Clouds  
Wind Chill: 34°   Ceiling: Unl
Heat Index: 41°   Visibility: 6mi
Dew Point: 32°   Wind: 13mph
Humidity: 70%   Direction: 260°W
Pressure: 29.85"   Gusts: NA
Location:  54.96°N, 1.72°W
Report Text: EGNT 211950Z 26011KT 9999 FEW030 05/00 Q1011
Loading
Personal Weather Stations






























Interactive Weather Map New forecast layout! Learn more

10-Day Weather Forecast

Advertisements
Track Severe Weather on mobile